Campbell AAF (Fort Campbell) Air Field
KHOP : now visible

Airfield :











YOU CAN JOIN US ON...

 
LOGIN :

Register | Disclaimer

   EN    FR    IT 

 









Legend :    VFR   Marginal VFR   IFR   Intensive IFR   Very Intensive IFR
Visi :
Ceiling :
>= 8 km
>= 3000ft
5 to 8 km
1000 to 3000 ft
1500m to 5 km
500 to 1000 ft
800 to 1500m
200 to 500 ft
< 800m
< 200 ft
Symbols :   Thunderstorms  Fog  Heavy snow  Heavy precipitations  Wind > 20 kt






- Airport Elevation : 573 ft


KHOP - Campbell AAF (Fort Campbell) Air Field

CURRENT METAR :
  • 072056Z AUTO 05005KT 10SM CLR 29/19 A3011 RMK AO2 SLP194 T02860186 57008

EXPIRED METARs :
  • 071956Z AUTO 06004KT 10SM CLR 28/18 A3012 RMK AO2 SLP197 T02810179
  • 071856Z AUTO 06004KT 10SM FEW040 28/18 A3013 RMK AO2 SLP201 T02800181

TAF TAF KHOP
Valid from the 07 at 16:00 until the 08 at 22:00 UTC


071600Z 0716/0822 01006KT 9999 FEW070 QNH3009INS TX29/0721Z TN18/0810Z
KZME FIR / North America



MET'MAP, your aeronautical weather chart ! - Copyright ORBIFLY December 2007 - Disclaimer

ORBIFLY MET'MAP TEAM :

Programming & Development : Alexandra Zaïnal
Concept & original design : Baudouin d'Aumeries
Assistance for programming : Marc-Olivier Méhu
Technical & hardware support : Manuel Goepfert

Contact : metmap@orbifly.com




SOURCES & CREDITS :

   NOAA       Earth
Advisory